createdAt,value
2023-09-27T00:01:31.090Z,9.27
2023-09-27T00:03:58.301Z,9.67
2023-09-27T00:06:25.578Z,12.70
2023-09-27T00:08:52.844Z,9.87
2023-09-27T00:11:20.507Z,10.43
2023-09-27T00:13:48.112Z,8.80
2023-09-27T00:16:15.340Z,10.73
2023-09-27T00:18:42.592Z,9.73
2023-09-27T00:21:09.747Z,9.43
2023-09-27T00:23:36.899Z,10.73
2023-09-27T00:26:04.073Z,10.83
2023-09-27T00:28:31.356Z,12.10
2023-09-27T00:30:58.506Z,10.93
2023-09-27T00:33:25.765Z,12.20
2023-09-27T00:35:53.319Z,11.27
2023-09-27T00:38:20.502Z,12.03
2023-09-27T00:40:48.796Z,13.47
2023-09-27T00:43:31.967Z,14.40
2023-09-27T00:46:02.422Z,11.43
2023-09-27T00:48:30.096Z,11.87
2023-09-27T00:50:57.428Z,11.83
2023-09-27T00:53:25.428Z,13.17
2023-09-27T00:55:53.388Z,12.13
2023-09-27T00:58:21.604Z,12.97
2023-09-27T01:00:50.823Z,11.00
2023-09-27T01:03:18.411Z,11.93
2023-09-27T01:05:46.290Z,10.83
2023-09-27T01:08:13.550Z,13.87
2023-09-27T01:10:40.783Z,12.07
2023-09-27T01:13:08.675Z,10.83
2023-09-27T01:15:35.896Z,12.53
2023-09-27T01:18:03.978Z,11.07
2023-09-27T01:20:31.981Z,11.27
2023-09-27T01:23:02.959Z,11.30
2023-09-27T01:25:37.364Z,11.37
2023-09-27T01:28:05.432Z,12.77
2023-09-27T01:30:35.688Z,11.07
2023-09-27T01:33:07.406Z,11.17
2023-09-27T01:35:44.713Z,10.87
2023-09-27T01:38:13.863Z,11.67
2023-09-27T01:40:42.808Z,11.10
2023-09-27T01:43:09.982Z,12.47
2023-09-27T01:45:37.755Z,11.33
2023-09-27T01:48:05.415Z,10.63
2023-09-27T01:50:34.316Z,10.97
2023-09-27T01:53:01.923Z,12.07
2023-09-27T01:55:29.155Z,10.23
2023-09-27T01:57:57.862Z,10.57
2023-09-27T02:00:25.384Z,9.80
2023-09-27T02:02:53.867Z,10.30
2023-09-27T02:05:21.226Z,12.40
2023-09-27T02:07:48.367Z,10.67
2023-09-27T02:10:15.464Z,11.63
2023-09-27T02:12:42.632Z,10.30
2023-09-27T02:15:11.123Z,11.07
2023-09-27T02:17:38.990Z,9.60
2023-09-27T02:20:08.193Z,10.30
2023-09-27T02:22:45.617Z,12.17
2023-09-27T02:25:13.926Z,10.90
2023-09-27T02:27:41.797Z,10.87
2023-09-27T02:30:12.738Z,12.17
2023-09-27T02:32:43.900Z,11.60
2023-09-27T02:35:12.146Z,9.87
2023-09-27T02:37:43.300Z,10.03
2023-09-27T02:40:14.773Z,10.97
2023-09-27T02:42:43.034Z,10.93
2023-09-27T02:45:11.145Z,10.63
2023-09-27T02:47:39.067Z,9.13
2023-09-27T02:50:07.056Z,10.73
2023-09-27T02:52:34.269Z,9.97
2023-09-27T02:55:01.983Z,10.07
2023-09-27T02:59:57.484Z,10.40
2023-09-27T03:02:24.955Z,10.07
2023-09-27T03:04:52.230Z,10.97
2023-09-27T03:07:19.377Z,12.77
2023-09-27T03:09:48.278Z,9.57
2023-09-27T03:12:15.627Z,9.33
2023-09-27T03:14:43.055Z,9.30
2023-09-27T03:17:10.464Z,11.27
2023-09-27T03:19:37.653Z,12.30
2023-09-27T03:22:05.017Z,10.63
2023-09-27T03:24:35.267Z,11.13
2023-09-27T03:27:05.258Z,12.90
2023-09-27T03:29:33.370Z,11.73
2023-09-27T03:32:01.015Z,12.07
2023-09-27T03:34:28.230Z,11.50
2023-09-27T03:36:57.203Z,12.47
2023-09-27T03:39:24.635Z,11.13
2023-09-27T03:41:52.247Z,12.43
2023-09-27T03:44:20.286Z,14.90
2023-09-27T03:46:48.083Z,12.30
2023-09-27T03:49:15.542Z,13.00
2023-09-27T03:51:42.636Z,15.37
2023-09-27T03:54:09.939Z,12.30
2023-09-27T03:56:37.154Z,11.90
2023-09-27T03:59:04.466Z,13.73
2023-09-27T04:01:32.729Z,12.20
2023-09-27T04:04:00.049Z,14.10
2023-09-27T04:06:27.255Z,15.00
2023-09-27T04:08:54.638Z,11.87
2023-09-27T04:11:22.109Z,12.77
2023-09-27T04:13:49.706Z,13.60
2023-09-27T04:16:17.396Z,13.83
2023-09-27T04:18:44.625Z,16.60
2023-09-27T04:21:12.462Z,14.90
2023-09-27T04:23:39.820Z,13.73
2023-09-27T04:26:07.511Z,14.00
2023-09-27T04:28:35.322Z,12.47
2023-09-27T04:31:03.799Z,13.63
2023-09-27T04:33:31.039Z,16.23
2023-09-27T04:35:58.290Z,16.37
2023-09-27T04:38:25.590Z,13.10
2023-09-27T04:40:52.888Z,12.10
2023-09-27T04:43:20.117Z,15.37
2023-09-27T04:45:49.985Z,15.40
2023-09-27T04:48:17.588Z,13.53
2023-09-27T04:50:45.402Z,14.30
2023-09-27T04:53:13.004Z,14.33
2023-09-27T04:55:40.482Z,15.10
2023-09-27T04:58:07.964Z,15.00
2023-09-27T05:00:35.099Z,15.80
2023-09-27T05:03:02.344Z,15.63
2023-09-27T05:05:29.626Z,13.53
2023-09-27T05:07:57.373Z,15.23
2023-09-27T05:10:24.746Z,14.60
2023-09-27T05:12:51.910Z,18.17
2023-09-27T05:15:19.024Z,15.20
2023-09-27T05:17:46.820Z,14.63
2023-09-27T05:20:14.675Z,14.47
2023-09-27T05:22:43.041Z,15.40
2023-09-27T05:25:11.729Z,14.30
2023-09-27T05:27:39.871Z,16.73
2023-09-27T05:30:11.858Z,14.33
2023-09-27T05:32:39.136Z,14.33
2023-09-27T05:35:06.605Z,14.87
2023-09-27T05:37:33.958Z,14.20
2023-09-27T05:40:01.266Z,15.93
2023-09-27T05:42:29.144Z,16.90
2023-09-27T05:44:57.292Z,14.67
2023-09-27T05:47:25.684Z,16.37
2023-09-27T05:49:54.174Z,18.67
2023-09-27T05:52:21.408Z,16.30
2023-09-27T05:54:49.032Z,16.53
2023-09-27T05:57:16.242Z,16.63
2023-09-27T05:59:45.948Z,17.67
2023-09-27T06:02:17.731Z,17.53
2023-09-27T06:04:48.662Z,15.07
2023-09-27T06:07:18.255Z,16.43
2023-09-27T06:09:45.649Z,15.90
2023-09-27T06:12:13.166Z,19.83
2023-09-27T06:14:40.372Z,18.77
2023-09-27T06:17:07.708Z,16.57
2023-09-27T06:19:34.952Z,14.97
2023-09-27T06:22:06.009Z,18.60
2023-09-27T06:24:33.208Z,19.47
2023-09-27T06:27:00.893Z,19.80
2023-09-27T06:29:28.029Z,16.57
2023-09-27T06:31:56.129Z,14.83
2023-09-27T06:34:23.384Z,16.57
2023-09-27T06:36:50.512Z,16.17
2023-09-27T06:39:20.029Z,16.93
2023-09-27T06:41:47.297Z,19.67
2023-09-27T06:44:14.922Z,16.17
2023-09-27T06:46:48.722Z,20.00
2023-09-27T06:49:17.772Z,18.73
2023-09-27T06:51:45.332Z,15.93
2023-09-27T06:54:12.855Z,15.97
2023-09-27T06:56:40.386Z,18.17
2023-09-27T06:59:09.124Z,16.80
2023-09-27T07:01:36.605Z,16.47
2023-09-27T07:04:05.130Z,17.37
2023-09-27T07:06:32.620Z,16.30
2023-09-27T07:09:00.036Z,16.50
2023-09-27T07:11:27.266Z,16.73
2023-09-27T07:13:54.430Z,15.37
2023-09-27T07:16:22.611Z,17.80
2023-09-27T07:18:50.173Z,17.00
2023-09-27T07:21:21.167Z,16.13
2023-09-27T07:23:48.762Z,17.60
2023-09-27T07:26:15.986Z,17.90
2023-09-27T07:28:43.340Z,16.47
2023-09-27T07:31:11.020Z,16.97
2023-09-27T07:33:38.252Z,16.00
2023-09-27T07:36:06.608Z,17.57
2023-09-27T07:38:33.803Z,16.33
2023-09-27T07:41:01.536Z,14.73
2023-09-27T07:43:29.501Z,19.53
2023-09-27T07:45:57.007Z,14.13
2023-09-27T07:48:26.062Z,14.03
2023-09-27T07:50:55.069Z,17.93
2023-09-27T07:53:22.437Z,13.27
2023-09-27T07:55:51.994Z,13.60
2023-09-27T07:58:19.316Z,13.50
2023-09-27T08:00:51.750Z,15.13
2023-09-27T08:03:22.700Z,13.87
2023-09-27T08:05:51.971Z,13.10
2023-09-27T08:08:19.183Z,13.90
2023-09-27T08:10:49.923Z,13.90
2023-09-27T08:13:18.145Z,12.53
2023-09-27T08:15:48.964Z,15.03
2023-09-27T08:18:16.736Z,12.07
2023-09-27T08:20:43.953Z,14.87
2023-09-27T08:23:11.317Z,12.87
2023-09-27T08:25:39.205Z,13.33
2023-09-27T08:28:08.000Z,13.63
2023-09-27T08:30:35.390Z,13.60
2023-09-27T08:33:03.357Z,13.20
2023-09-27T08:35:31.171Z,12.90
2023-09-27T08:37:58.984Z,12.97
2023-09-27T08:40:26.182Z,12.83
2023-09-27T08:43:01.198Z,11.93
2023-09-27T08:45:29.455Z,13.73
2023-09-27T08:47:56.673Z,13.90
2023-09-27T08:50:24.735Z,11.90
2023-09-27T08:52:53.063Z,12.53
2023-09-27T08:55:21.197Z,12.80
2023-09-27T08:57:56.164Z,12.47
2023-09-27T09:00:27.487Z,11.73
2023-09-27T09:03:00.431Z,11.23
2023-09-27T09:05:31.162Z,17.77
2023-09-27T09:08:00.571Z,13.43
2023-09-27T09:10:28.179Z,11.00
2023-09-27T09:12:55.604Z,11.85
2023-09-27T09:15:37.852Z,12.57
2023-09-27T09:18:07.655Z,13.93
2023-09-27T09:20:49.961Z,13.23
2023-09-27T09:23:35.317Z,12.52
2023-09-27T09:26:04.776Z,14.30
2023-09-27T09:28:31.936Z,13.40
2023-09-27T09:30:59.612Z,20.30
2023-09-27T09:33:29.381Z,12.20
2023-09-27T09:35:57.527Z,13.98
2023-09-27T09:38:26.347Z,14.38
2023-09-27T09:40:54.081Z,14.45
2023-09-27T09:43:37.617Z,17.02
2023-09-27T09:46:08.019Z,14.10
2023-09-27T09:48:36.011Z,11.38
2023-09-27T09:51:07.907Z,13.15
2023-09-27T09:53:43.113Z,15.10
2023-09-27T09:58:48.303Z,12.27
2023-09-27T10:01:23.115Z,15.23
2023-09-27T10:03:52.940Z,15.90
2023-09-27T10:06:32.362Z,16.38
2023-09-27T10:09:02.148Z,12.95
2023-09-27T10:11:30.369Z,16.73
2023-09-27T10:13:58.559Z,12.80
2023-09-27T10:16:27.363Z,13.73
2023-09-27T10:18:56.089Z,15.80
2023-09-27T10:21:23.273Z,17.60
2023-09-27T10:23:51.559Z,14.35
2023-09-27T10:26:21.685Z,13.38
2023-09-27T10:29:14.878Z,13.48
2023-09-27T10:31:57.670Z,11.73
2023-09-27T10:34:31.653Z,16.75
2023-09-27T10:37:17.369Z,14.20
2023-09-27T10:40:07.011Z,14.75
2023-09-27T10:42:43.809Z,14.15
2023-09-27T10:45:11.337Z,12.68
2023-09-27T10:47:38.591Z,11.55
2023-09-27T10:50:05.990Z,10.55
2023-09-27T10:52:33.544Z,13.85
2023-09-27T10:55:11.168Z,14.10
2023-09-27T10:57:40.593Z,10.50
2023-09-27T11:00:11.817Z,12.98
2023-09-27T11:02:39.353Z,13.80
2023-09-27T11:05:08.179Z,14.35
2023-09-27T11:07:48.535Z,11.77
2023-09-27T11:10:19.882Z,15.77
2023-09-27T11:12:48.627Z,16.65
2023-09-27T11:15:24.070Z,14.00
2023-09-27T11:18:00.311Z,19.95
2023-09-27T11:20:27.643Z,16.10
2023-09-27T11:22:59.374Z,14.57
2023-09-27T11:25:32.437Z,10.98
2023-09-27T11:27:59.649Z,12.68
2023-09-27T11:30:33.583Z,7.80
2023-09-27T11:33:07.632Z,11.88
2023-09-27T11:35:37.497Z,13.10
2023-09-27T11:38:10.933Z,9.80
2023-09-27T11:40:39.441Z,12.00
2023-09-27T11:43:07.075Z,9.63
2023-09-27T11:45:47.556Z,9.90
2023-09-27T11:48:15.323Z,13.68
2023-09-27T11:50:42.949Z,10.65
2023-09-27T11:53:10.442Z,11.57
2023-09-27T11:55:37.683Z,7.18
2023-09-27T11:58:04.955Z,10.27
2023-09-27T12:00:33.283Z,8.77
2023-09-27T12:03:00.614Z,8.32
2023-09-27T12:05:28.723Z,9.68
2023-09-27T12:07:56.459Z,10.02
2023-09-27T12:10:34.020Z,10.57
2023-09-27T12:13:13.261Z,6.60
2023-09-27T12:15:42.067Z,6.35
2023-09-27T12:18:10.533Z,8.07
2023-09-27T12:20:43.400Z,10.00
2023-09-27T12:26:17.172Z,6.82
2023-09-27T12:28:44.544Z,11.77
2023-09-27T12:31:14.191Z,10.57
2023-09-27T12:33:41.434Z,8.43
2023-09-27T12:36:11.174Z,7.43
2023-09-27T12:38:38.355Z,10.13
2023-09-27T12:41:09.557Z,11.90
2023-09-27T12:43:41.989Z,8.60
2023-09-27T12:46:21.365Z,10.80
2023-09-27T12:48:52.341Z,10.98
2023-09-27T12:51:48.187Z,8.55
2023-09-27T12:54:24.897Z,7.82
2023-09-27T12:56:54.256Z,10.98
2023-09-27T12:59:29.332Z,7.78
2023-09-27T13:01:58.250Z,10.38
2023-09-27T13:04:25.441Z,7.70
2023-09-27T13:06:57.354Z,7.30
2023-09-27T13:09:24.599Z,6.30
2023-09-27T13:12:04.291Z,6.97
2023-09-27T13:14:36.572Z,7.53
2023-09-27T13:17:22.769Z,10.15
2023-09-27T13:19:56.372Z,6.95
2023-09-27T13:22:40.020Z,9.48
2023-09-27T13:25:11.670Z,8.70
2023-09-27T13:27:43.706Z,18.90
2023-09-27T13:30:18.678Z,7.65
2023-09-27T13:32:49.828Z,10.07
2023-09-27T13:35:16.989Z,17.15
2023-09-27T13:37:44.112Z,7.18
2023-09-27T13:40:14.054Z,7.47
2023-09-27T13:42:42.446Z,14.20
2023-09-27T13:45:20.672Z,13.43
2023-09-27T13:47:48.090Z,8.05
2023-09-27T13:50:15.343Z,8.15
2023-09-27T13:52:55.537Z,10.18
2023-09-27T13:55:22.877Z,11.98
2023-09-27T13:57:51.968Z,14.98
2023-09-27T14:00:19.817Z,8.05
2023-09-27T14:02:47.542Z,8.77
2023-09-27T14:05:14.829Z,6.93
2023-09-27T14:07:43.376Z,6.70
2023-09-27T14:10:13.933Z,7.97
2023-09-27T14:12:41.918Z,9.85
2023-09-27T14:15:10.482Z,6.22
2023-09-27T14:17:39.925Z,5.72
2023-09-27T14:20:07.490Z,6.85
2023-09-27T14:22:35.766Z,8.30
2023-09-27T14:25:04.575Z,9.25
2023-09-27T14:27:33.040Z,4.88
2023-09-27T14:30:00.653Z,6.00
2023-09-27T14:32:27.984Z,5.18
2023-09-27T14:34:57.531Z,6.78
2023-09-27T14:37:25.551Z,5.50
2023-09-27T14:39:52.820Z,5.38
2023-09-27T14:42:19.991Z,7.38
2023-09-27T14:44:47.183Z,6.95
2023-09-27T14:47:14.504Z,4.80
2023-09-27T14:49:41.693Z,5.80
2023-09-27T14:52:09.394Z,4.65
2023-09-27T14:54:39.108Z,5.05
2023-09-27T14:57:06.389Z,9.05
2023-09-27T14:59:33.454Z,8.80
2023-09-27T15:02:00.804Z,17.25
2023-09-27T15:04:28.576Z,9.05
2023-09-27T15:06:56.540Z,12.52
2023-09-27T15:09:23.781Z,7.68
2023-09-27T15:11:51.038Z,7.25
2023-09-27T15:14:18.152Z,6.22
2023-09-27T15:16:45.342Z,4.43
2023-09-27T15:19:13.367Z,3.90
2023-09-27T15:21:40.573Z,4.15
2023-09-27T15:24:07.928Z,4.03
2023-09-27T15:26:35.061Z,4.18
2023-09-27T15:29:03.046Z,8.57
2023-09-27T15:31:30.385Z,5.82
2023-09-27T15:33:58.172Z,22.00
2023-09-27T15:36:26.157Z,14.32
2023-09-27T15:38:53.306Z,14.98
2023-09-27T15:41:20.813Z,10.30
2023-09-27T15:43:50.108Z,10.25
2023-09-27T15:46:20.897Z,4.63
2023-09-27T15:48:48.180Z,5.47
2023-09-27T15:51:16.764Z,8.82
2023-09-27T15:53:44.169Z,4.25
2023-09-27T15:56:11.985Z,6.80
2023-09-27T15:58:39.459Z,6.03
2023-09-27T16:01:09.940Z,5.45
2023-09-27T16:03:37.610Z,6.68
2023-09-27T16:06:05.541Z,4.45
2023-09-27T16:08:32.913Z,6.05
2023-09-27T16:11:00.498Z,7.50
2023-09-27T16:13:28.307Z,5.22
2023-09-27T16:15:55.874Z,5.65
2023-09-27T16:18:23.227Z,7.38
2023-09-27T16:20:50.982Z,3.85
2023-09-27T16:23:18.668Z,7.85
2023-09-27T16:25:46.973Z,6.70
2023-09-27T16:28:14.621Z,4.07
2023-09-27T16:30:42.274Z,9.77
2023-09-27T16:33:11.151Z,4.82
2023-09-27T16:35:39.248Z,10.57
2023-09-27T16:38:07.109Z,7.75
2023-09-27T16:40:36.115Z,5.65
2023-09-27T16:43:04.219Z,4.22
2023-09-27T16:45:31.373Z,4.32
2023-09-27T16:47:59.417Z,8.45
2023-09-27T16:50:26.760Z,10.90
2023-09-27T16:52:54.088Z,4.78
2023-09-27T16:55:21.193Z,6.05
2023-09-27T16:57:48.385Z,5.00
2023-09-27T17:00:16.484Z,5.00
2023-09-27T17:02:43.717Z,5.25
2023-09-27T17:05:11.972Z,4.95
2023-09-27T17:07:39.532Z,5.25
2023-09-27T17:10:10.213Z,5.05
2023-09-27T17:12:37.810Z,4.90
2023-09-27T17:15:08.214Z,6.35
2023-09-27T17:17:35.599Z,4.30
2023-09-27T17:20:03.899Z,4.73
2023-09-27T17:22:31.153Z,4.40
2023-09-27T17:24:58.286Z,5.23
2023-09-27T17:27:25.574Z,5.57
2023-09-27T17:29:52.716Z,4.40
2023-09-27T17:32:19.979Z,6.80
2023-09-27T17:34:47.148Z,5.10
2023-09-27T17:37:14.402Z,7.70
2023-09-27T17:39:42.776Z,5.30
2023-09-27T17:42:10.024Z,5.50
2023-09-27T17:44:38.481Z,5.30
2023-09-27T17:47:06.268Z,5.20
2023-09-27T17:49:33.474Z,4.83
2023-09-27T17:52:02.440Z,5.60
2023-09-27T17:54:29.529Z,6.30
2023-09-27T17:56:56.667Z,8.60
2023-09-27T17:59:23.915Z,5.70
2023-09-27T18:01:51.447Z,6.00
2023-09-27T18:04:18.887Z,7.00
2023-09-27T18:06:46.287Z,6.20
2023-09-27T18:09:13.462Z,5.97
2023-09-27T18:11:40.539Z,8.20
2023-09-27T18:14:11.694Z,7.03
2023-09-27T18:16:39.023Z,9.20
2023-09-27T18:19:06.184Z,10.87
2023-09-27T18:21:33.377Z,12.20
2023-09-27T18:24:00.868Z,14.73
2023-09-27T18:26:28.625Z,15.20
2023-09-27T18:28:55.942Z,16.67
2023-09-27T18:31:26.484Z,12.67
2023-09-27T18:33:53.872Z,10.23
2023-09-27T18:36:21.285Z,8.53
2023-09-27T18:38:55.282Z,10.13
2023-09-27T18:41:32.205Z,11.33
2023-09-27T18:43:59.318Z,8.73
2023-09-27T18:46:26.658Z,8.93
2023-09-27T18:48:54.223Z,10.10
2023-09-27T18:51:22.203Z,8.17
2023-09-27T18:53:50.486Z,7.27
2023-09-27T18:56:17.632Z,7.00
2023-09-27T18:58:44.762Z,7.60
2023-09-27T19:01:12.488Z,8.67
2023-09-27T19:03:40.090Z,7.23
2023-09-27T19:06:07.249Z,6.90
2023-09-27T19:08:34.397Z,6.27
2023-09-27T19:11:01.818Z,6.03
2023-09-27T19:13:29.599Z,6.37
2023-09-27T19:15:57.346Z,6.00
2023-09-27T19:18:24.512Z,5.43
2023-09-27T19:20:53.482Z,7.13
2023-09-27T19:23:20.572Z,6.80
2023-09-27T19:25:48.978Z,6.60
2023-09-27T19:28:16.362Z,6.27
2023-09-27T19:30:43.481Z,6.27
2023-09-27T19:33:11.656Z,6.33
2023-09-27T19:35:39.083Z,6.80
2023-09-27T19:38:06.386Z,6.20
2023-09-27T19:40:33.602Z,5.90
2023-09-27T19:43:01.474Z,10.00
2023-09-27T19:45:30.495Z,6.20
2023-09-27T19:47:57.654Z,6.80
2023-09-27T19:50:25.683Z,6.50
2023-09-27T19:52:52.886Z,8.23
2023-09-27T19:55:20.102Z,6.73
2023-09-27T19:57:48.064Z,8.47
2023-09-27T20:00:18.452Z,7.50
2023-09-27T20:02:46.832Z,10.87
2023-09-27T20:05:14.147Z,7.93
2023-09-27T20:07:46.658Z,8.23
2023-09-27T20:10:13.934Z,8.47
2023-09-27T20:12:41.049Z,8.37
2023-09-27T20:15:14.197Z,8.47
2023-09-27T20:17:41.619Z,8.37
2023-09-27T20:20:14.918Z,9.03
2023-09-27T20:22:42.065Z,9.07
2023-09-27T20:25:11.523Z,10.40
2023-09-27T20:27:39.059Z,10.50
2023-09-27T20:30:06.512Z,11.73
2023-09-27T20:32:34.452Z,9.23
2023-09-27T20:35:05.114Z,10.20
2023-09-27T20:37:33.096Z,10.43
2023-09-27T20:40:00.657Z,10.63
2023-09-27T20:42:27.811Z,9.83
2023-09-27T20:44:55.147Z,9.83
2023-09-27T20:47:22.643Z,10.50
2023-09-27T20:49:50.044Z,10.27
2023-09-27T20:52:18.597Z,10.17
2023-09-27T20:54:45.834Z,9.60
2023-09-27T20:57:13.058Z,12.87
2023-09-27T20:59:40.906Z,10.23
2023-09-27T21:02:08.098Z,11.20
2023-09-27T21:04:35.620Z,11.60
2023-09-27T21:07:04.097Z,12.40
2023-09-27T21:09:31.514Z,11.67
2023-09-27T21:12:00.778Z,10.60
2023-09-27T21:14:29.196Z,13.17
2023-09-27T21:16:56.422Z,11.13
2023-09-27T21:19:23.587Z,13.73
2023-09-27T21:21:50.811Z,11.07
2023-09-27T21:24:18.700Z,10.47
2023-09-27T21:26:48.581Z,12.37
2023-09-27T21:29:15.808Z,13.87
2023-09-27T21:31:44.540Z,12.27
2023-09-27T21:34:13.619Z,17.17
2023-09-27T21:36:43.864Z,11.97
2023-09-27T21:39:13.255Z,10.87
2023-09-27T21:41:40.595Z,12.63
2023-09-27T21:44:08.530Z,14.97
2023-09-27T21:46:35.707Z,11.37
2023-09-27T21:49:06.059Z,12.80
2023-09-27T21:51:33.185Z,12.43
2023-09-27T21:54:00.649Z,12.37
2023-09-27T21:56:28.008Z,11.93
2023-09-27T21:58:55.216Z,14.97
2023-09-27T22:01:23.251Z,12.60
2023-09-27T22:03:54.325Z,12.53
2023-09-27T22:06:21.544Z,12.20
2023-09-27T22:08:53.833Z,11.00
2023-09-27T22:11:22.156Z,11.33
2023-09-27T22:13:49.515Z,11.50
2023-09-27T22:16:16.849Z,11.87
2023-09-27T22:18:49.571Z,11.43
2023-09-27T22:21:25.137Z,11.73
2023-09-27T22:23:57.091Z,11.77
2023-09-27T22:26:25.867Z,11.20
2023-09-27T22:28:56.873Z,9.70
2023-09-27T22:31:28.159Z,11.07
2023-09-27T22:33:57.872Z,13.27
2023-09-27T22:36:29.404Z,11.13
2023-09-27T22:38:56.663Z,10.87
2023-09-27T22:41:29.776Z,9.83
2023-09-27T22:43:59.401Z,10.87
2023-09-27T22:46:27.233Z,9.03
2023-09-27T22:48:57.527Z,8.43
2023-09-27T22:51:24.949Z,8.77
2023-09-27T22:53:52.599Z,7.43
2023-09-27T22:56:19.917Z,9.57
2023-09-27T22:59:18.927Z,7.43
2023-09-27T23:01:47.716Z,7.57
2023-09-27T23:04:17.893Z,9.90
2023-09-27T23:06:47.899Z,7.57
2023-09-27T23:09:22.026Z,7.33
2023-09-27T23:11:50.129Z,7.43
2023-09-27T23:14:23.221Z,8.03
2023-09-27T23:17:11.328Z,6.03
2023-09-27T23:19:44.738Z,8.00
2023-09-27T23:22:12.229Z,8.23
2023-09-27T23:24:43.405Z,10.23
2023-09-27T23:27:10.573Z,8.50
2023-09-27T23:29:37.810Z,7.10
2023-09-27T23:32:24.364Z,6.73
2023-09-27T23:34:54.784Z,5.80
2023-09-27T23:37:32.144Z,7.63
2023-09-27T23:40:00.221Z,6.40
2023-09-27T23:42:28.186Z,6.50
2023-09-27T23:45:10.703Z,6.07
2023-09-27T23:47:45.550Z,6.27
2023-09-27T23:50:16.227Z,6.83
2023-09-27T23:52:45.747Z,6.10
2023-09-27T23:55:13.468Z,5.70
2023-09-27T23:57:41.006Z,6.33
